LEXJ/SDR METAR and TAF weather

Enter ICAO airport designator
Station Type Date Time Source
LEXJ METAR 2022/01/23 12:00 UTC NOAA

LEXJ 231200Z 15002KT CAVOK 09/02 Q1026


Station Type Date Time Source
LEXJ Decoded METAR 2022/01/23 12:00 UTC NOAA

Santander / Parayas, Spain (LEXJ) 43-26N 003-49W 9M
Jan 23, 2022 - 07:00 AM EST / 2022.01.23 1200 UTC
Wind: from the SSE (150 degrees) at 2 MPH (2 KT):0
Visibility: greater than 7 mile(s):0
Temperature: 48 F (9 C)
Dew Point: 35 F (2 C)
Relative Humidity: 61%
Pressure (altimeter): 30.30 in. Hg (1026 hPa)
ob: LEXJ 231200Z 15002KT CAVOK 09/02 Q1026
cycle: 12

Station Type Date Time Source
LEXJ TAF 2022/01/23 09:30 UTC NOAA

TAF LEXJ 230800Z 2309/2409 10006KT CAVOK TX11/2315Z TN00/2407Z PROB30
TEMPO 2406/2409 18010KT

Example: see airport list